Friday, January 19, 2018, 3:59 AM GMT
Back to Local

CWQO, Ile Bicquette, Que.

Location: , , Canada Lat: 48.416
Local Time: 3:59 AM GMT ( 3:59 GMT) Lon: -68.893
Time Zone: GMT Elev: 22 ft

Show me the last for .
Show Coded

Time T Td Feel RH Dir Speed Gust Alt SLP Vis Weather Sky Remarks
2018-01-19 03:00 18 9 2 66 340° 12 17 - - 0 None
2018-01-19 02:00 18 9 5 66 340° 13 - - - 0 Peak wind: 21 mph (19 kts) from 330° at 09 min
2018-01-19 01:00 19 9 1 66 340° 15 23 - - 0 Peak wind: 23 mph (20 kts) from 330° at 50 min
2018-01-19 00:00 20 9 5 63 330° 16 - - - 0 Peak wind: 21 mph (19 kts) from 330° at 45 min
2018-01-18 23:00 21 10 6 63 320° 17 - - - 0 Peak wind: 23 mph (20 kts) from 330° at 02 min
2018-01-18 22:00 22 11 7 63 320° 20 - - - 0 Peak wind: 23 mph (20 kts) from 320° at 44 min
2018-01-18 21:00 24 15 8 66 310° 13 26 - - 0 Peak wind: 31 mph (27 kts) from 250° at 14 min
2018-01-18 20:00 27 16 11 63 250° 28 - - - 0 Peak wind: 36 mph (32 kts) from 260° at 08 min
2018-01-18 19:00 29 17 13 60 260° 29 36 - - 0 Peak wind: 36 mph (32 kts) from 260° at 37 min
2018-01-18 18:00 27 18 12 67 240° 25 - - - 0 Peak wind: 34 mph (30 kts) from 250° at 22 min
2018-01-18 17:00 26 21 10 80 230° 26 - - - 0 Peak wind: 34 mph (30 kts) from 230° at 42 min
2018-01-18 16:00 26 22 8 86 220° 28 33 - - 0 Peak wind: 35 mph (31 kts) from 220° at 26 min
2018-01-18 15:00 24 19 7 80 220° 24 31 - - 0 Peak wind: 32 mph (28 kts) from 220° at 01 min
2018-01-18 14:00 24 19 7 80 220° 24 31 - - 0 Peak wind: 35 mph (31 kts) from 220° at 04 min
2018-01-18 13:00 24 19 5 81 220° 29 35 - - 0 Peak wind: 35 mph (31 kts) from 220° at 44 min
2018-01-18 12:00 23 19 5 81 220° 23 31 - - 0 Peak wind: 35 mph (31 kts) from 210° at 44 min
2018-01-18 11:00 23 18 4 81 210° 25 32 - - 0 Peak wind: 36 mph (32 kts) from 220° at 39 min
2018-01-18 10:00 22 17 3 80 210° 29 36 - - 0 Peak wind: 35 mph (31 kts) from 210° at 54 min
2018-01-18 09:00 22 19 4 85 210° 24 32 - - 0 Peak wind: 37 mph (33 kts) from 230° at 08 min
2018-01-18 08:00 24 17 5 72 220° 26 36 - - 0 Peak wind: 36 mph (32 kts) from 220° at 21 min
2018-01-18 07:00 22 19 3 85 220° 25 38 - - 0 Peak wind: 37 mph (33 kts) from 220° at 51 min
2018-01-18 06:00 22 16 2 79 220° 26 36 - - 0 Peak wind: 40 mph (35 kts) from 210° at 20 min
2018-01-18 05:00 23 16 3 75 220° 29 37 - - 0 Peak wind: 39 mph (34 kts) from 220° at 33 min
2018-01-18 04:00 23 15 3 73 210° 24 37 - - 0 Peak wind: 36 mph (32 kts) from 230° at 59 min

Support USWX by starting your Amazon purchase here.